createdAt,value
2023-02-04T00:00:13.779Z,100397.78
2023-02-04T00:02:41.533Z,100390.91
2023-02-04T00:05:10.122Z,100404.00
2023-02-04T00:07:37.882Z,100415.31
2023-02-04T00:10:07.018Z,100417.91
2023-02-04T00:12:36.128Z,100412.69
2023-02-04T00:15:03.923Z,100420.63
2023-02-04T00:17:31.605Z,100430.22
2023-02-04T00:19:59.583Z,100422.34
2023-02-04T00:22:29.487Z,100428.59
2023-02-04T00:24:57.644Z,100433.75
2023-02-04T00:27:25.611Z,100418.06
2023-02-04T00:29:54.653Z,100423.28
2023-02-04T00:32:22.339Z,100426.78
2023-02-04T00:34:50.674Z,100428.59
2023-02-04T00:37:18.888Z,100421.66
2023-02-04T00:39:47.143Z,100447.97
2023-02-04T00:42:15.631Z,100441.66
2023-02-04T00:44:43.582Z,100438.25
2023-02-04T00:47:13.758Z,100441.75
2023-02-04T00:49:42.242Z,100440.00
2023-02-04T00:54:40.383Z,100436.63
2023-02-04T00:57:09.564Z,100455.78
2023-02-04T00:59:38.433Z,100461.06
2023-02-04T01:02:07.366Z,100465.34
2023-02-04T01:07:06.146Z,100466.28
2023-02-04T01:09:39.554Z,100476.78
2023-02-04T01:12:08.073Z,100453.22
2023-02-04T01:14:36.415Z,100475.97
2023-02-04T01:17:04.177Z,100466.41
2023-02-04T01:19:31.721Z,100469.09
2023-02-04T01:21:59.256Z,100470.75
2023-02-04T01:24:26.833Z,100475.13
2023-02-04T01:26:55.906Z,100486.56
2023-02-04T01:29:23.562Z,100483.97
2023-02-04T01:31:51.205Z,100479.50
2023-02-04T01:34:18.781Z,100477.84
2023-02-04T01:36:46.323Z,100478.81
2023-02-04T01:39:13.990Z,100495.19
2023-02-04T01:41:41.870Z,100492.66
2023-02-04T01:44:12.014Z,100505.84
2023-02-04T01:46:39.853Z,100501.38
2023-02-04T01:49:07.698Z,100506.59
2023-02-04T01:51:35.638Z,100515.44
2023-02-04T01:54:03.443Z,100517.13
2023-02-04T01:56:31.689Z,100519.00
2023-02-04T01:58:59.778Z,100519.91
2023-02-04T02:01:37.991Z,100517.28
2023-02-04T02:04:06.454Z,100524.38
2023-02-04T02:06:34.155Z,100521.75
2023-02-04T02:09:02.236Z,100507.84
2023-02-04T02:11:30.095Z,100517.44
2023-02-04T02:13:57.782Z,100511.38
2023-02-04T02:16:25.567Z,100525.34
2023-02-04T02:18:54.669Z,100530.56
2023-02-04T02:21:33.332Z,100515.75
2023-02-04T02:24:25.127Z,100514.97
2023-02-04T02:26:53.431Z,100504.50
2023-02-04T02:29:21.076Z,100521.13
2023-02-04T02:31:48.737Z,100522.97
2023-02-04T02:34:16.358Z,100509.09
2023-02-04T02:36:44.069Z,100530.81
2023-02-04T02:39:13.052Z,100530.00
2023-02-04T02:41:40.665Z,100528.28
2023-02-04T02:44:08.465Z,100524.78
2023-02-04T02:46:36.099Z,100527.38
2023-02-04T02:49:03.722Z,100507.34
2023-02-04T02:51:31.896Z,100523.09
2023-02-04T02:53:59.656Z,100523.94
2023-02-04T02:56:28.620Z,100531.88
2023-02-04T02:58:56.215Z,100540.56
2023-02-04T03:01:23.866Z,100533.63
2023-02-04T03:03:52.868Z,100540.56
2023-02-04T03:06:22.026Z,100535.38
2023-02-04T03:08:52.635Z,100542.34
2023-02-04T03:11:20.263Z,100548.47
2023-02-04T03:13:49.427Z,100548.53
2023-02-04T03:16:19.953Z,100560.75
2023-02-04T03:18:47.984Z,100552.88
2023-02-04T03:21:15.645Z,100565.09
2023-02-04T03:23:43.256Z,100578.22
2023-02-04T03:26:10.874Z,100576.41
2023-02-04T03:28:40.671Z,100575.59
2023-02-04T03:31:09.735Z,100582.63
2023-02-04T03:33:37.472Z,100591.34
2023-02-04T03:36:05.562Z,100601.81
2023-02-04T03:38:34.370Z,100584.38
2023-02-04T03:41:02.196Z,100586.97
2023-02-04T03:43:30.469Z,100590.47
2023-02-04T03:45:59.155Z,100600.97
2023-02-04T03:48:28.103Z,100588.75
2023-02-04T03:50:55.681Z,100600.13
2023-02-04T03:53:23.336Z,100608.00
2023-02-04T03:55:51.029Z,100613.22
2023-02-04T03:58:18.604Z,100622.81
2023-02-04T04:00:46.270Z,100631.56
2023-02-04T04:03:13.811Z,100632.44
2023-02-04T04:05:42.817Z,100624.59
2023-02-04T04:08:10.376Z,100621.97
2023-02-04T04:10:38.037Z,100621.97
2023-02-04T04:13:05.627Z,100622.84
2023-02-04T04:15:33.297Z,100625.44
2023-02-04T04:18:00.938Z,100627.16
2023-02-04T04:20:29.093Z,100629.81
2023-02-04T04:22:58.172Z,100633.31
2023-02-04T04:25:25.890Z,100628.06
2023-02-04T04:27:53.604Z,100626.31
2023-02-04T04:30:21.294Z,100627.16
2023-02-04T04:32:48.890Z,100631.53
2023-02-04T04:35:16.605Z,100639.41
2023-02-04T04:37:44.168Z,100643.75
2023-02-04T04:40:13.999Z,100642.91
2023-02-04T04:42:41.642Z,100649.00
2023-02-04T04:45:10.380Z,100646.41
2023-02-04T04:47:38.056Z,100637.69
2023-02-04T04:50:06.179Z,100638.53
2023-02-04T04:52:33.764Z,100642.88
2023-02-04T04:55:01.301Z,100640.28
2023-02-04T04:57:30.371Z,100624.56
2023-02-04T04:59:57.910Z,100621.06
2023-02-04T05:02:25.455Z,100620.19
2023-02-04T05:04:53.485Z,100618.47
2023-02-04T05:07:21.054Z,100627.19
2023-02-04T05:09:48.589Z,100631.56
2023-02-04T05:12:16.326Z,100635.06
2023-02-04T05:14:45.304Z,100635.91
2023-02-04T05:17:12.892Z,100643.81
2023-02-04T05:19:40.478Z,100642.03
2023-02-04T05:22:08.120Z,100653.38
2023-02-04T05:24:35.678Z,100650.78
2023-02-04T05:27:03.235Z,100643.78
2023-02-04T05:29:31.183Z,100651.66
2023-02-04T05:32:00.204Z,100648.16
2023-02-04T05:34:27.918Z,100654.28
2023-02-04T05:36:55.481Z,100659.53
2023-02-04T05:39:23.041Z,100670.88
2023-02-04T05:41:50.595Z,100669.13
2023-02-04T05:44:18.196Z,100683.97
2023-02-04T05:46:45.815Z,100679.63
2023-02-04T05:49:14.802Z,100693.56
2023-02-04T05:51:42.376Z,100706.66
2023-02-04T05:54:09.957Z,100707.53
2023-02-04T05:56:37.592Z,100708.38
2023-02-04T05:59:05.175Z,100704.03
2023-02-04T06:01:32.754Z,100708.38
2023-02-04T06:04:00.467Z,100716.25
2023-02-04T06:06:29.569Z,100719.72
2023-02-04T06:08:57.225Z,100724.97
2023-02-04T06:11:24.778Z,100722.34
2023-02-04T06:13:52.352Z,100734.56
2023-02-04T06:16:20.061Z,100724.97
2023-02-04T06:18:47.771Z,100725.88
2023-02-04T06:21:15.349Z,100717.13
2023-02-04T06:23:44.307Z,100720.63
2023-02-04T06:26:12.243Z,100725.84
2023-02-04T06:28:39.882Z,100725.00
2023-02-04T06:31:09.093Z,100731.97
2023-02-04T06:33:37.307Z,100738.06
2023-02-04T06:36:05.415Z,100740.69
2023-02-04T06:38:32.977Z,100736.31
2023-02-04T06:41:01.922Z,100742.44
2023-02-04T06:43:29.513Z,100738.94
2023-02-04T06:45:57.166Z,100744.16
2023-02-04T06:48:24.829Z,100734.56
2023-02-04T06:50:52.438Z,100746.78
2023-02-04T06:53:20.009Z,100758.13
2023-02-04T06:55:47.656Z,100760.75
2023-02-04T06:58:16.590Z,100772.09
2023-02-04T07:00:44.321Z,100766.84
2023-02-04T07:03:11.939Z,100767.72
2023-02-04T07:05:40.041Z,100767.72
2023-02-04T07:08:07.924Z,100777.31
2023-02-04T07:10:35.872Z,100782.56
2023-02-04T07:13:03.898Z,100785.19
2023-02-04T07:15:33.196Z,100789.53
2023-02-04T07:18:01.165Z,100795.66
2023-02-04T07:20:29.440Z,100800.03
2023-02-04T07:22:57.156Z,100800.88
2023-02-04T07:25:24.853Z,100803.50
2023-02-04T07:27:52.595Z,100805.25
2023-02-04T07:30:20.637Z,100811.34
2023-02-04T07:32:50.025Z,100813.97
2023-02-04T07:35:18.078Z,100815.72
2023-02-04T07:37:45.700Z,100817.47
2023-02-04T07:40:14.031Z,100818.31
2023-02-04T07:42:41.617Z,100813.09
2023-02-04T07:45:09.949Z,100821.81
2023-02-04T07:47:38.638Z,100821.84
2023-02-04T07:50:08.261Z,100828.81
2023-02-04T07:52:36.533Z,100826.19
2023-02-04T07:55:04.170Z,100837.53
2023-02-04T07:57:32.186Z,100834.91
2023-02-04T08:00:00.238Z,100846.28
2023-02-04T08:02:28.340Z,100851.50
2023-02-04T08:04:55.989Z,100855.00
2023-02-04T08:07:25.020Z,100848.88
2023-02-04T08:09:54.954Z,100855.88
2023-02-04T08:12:22.700Z,100854.13
2023-02-04T08:14:50.488Z,100858.50
2023-02-04T08:17:18.110Z,100859.38
2023-02-04T08:19:46.205Z,100866.34
2023-02-04T08:22:13.936Z,100863.75
2023-02-04T08:24:42.961Z,100858.50
2023-02-04T08:27:10.860Z,100861.16
2023-02-04T08:29:38.640Z,100869.03
2023-02-04T08:32:09.988Z,100861.16
2023-02-04T08:34:37.887Z,100864.66
2023-02-04T08:37:06.130Z,100859.41
2023-02-04T08:39:33.859Z,100857.69
2023-02-04T08:42:02.890Z,100862.03
2023-02-04T08:44:30.585Z,100862.91
2023-02-04T08:46:58.796Z,100868.16
2023-02-04T08:49:26.389Z,100855.06
2023-02-04T08:51:54.133Z,100869.91
2023-02-04T08:54:22.233Z,100878.63
2023-02-04T08:56:50.046Z,100882.13
2023-02-04T08:59:19.074Z,100885.63
2023-02-04T09:01:51.004Z,100888.25
2023-02-04T09:04:18.907Z,100888.25
2023-02-04T09:06:46.649Z,100885.63
2023-02-04T09:09:14.510Z,100892.63
2023-02-04T09:11:42.699Z,100899.59
2023-02-04T09:14:10.407Z,100905.69
2023-02-04T09:16:39.508Z,100900.47
2023-02-04T09:19:09.330Z,100903.09
2023-02-04T09:21:36.945Z,100901.34
2023-02-04T09:24:04.865Z,100897.81
2023-02-04T09:26:32.572Z,100904.78
2023-02-04T09:29:00.327Z,100906.53
2023-02-04T09:31:28.086Z,100915.28
2023-02-04T09:33:57.244Z,100910.00
2023-02-04T09:36:28.425Z,100861.97
2023-02-04T09:38:56.564Z,100917.84
2023-02-04T09:41:24.221Z,100924.88
2023-02-04T09:43:52.021Z,100927.41
2023-02-04T09:46:22.880Z,100924.84
2023-02-04T09:48:51.257Z,100923.06
2023-02-04T09:51:22.731Z,100927.38
2023-02-04T09:53:50.763Z,100943.91
2023-02-04T09:56:19.343Z,100942.06
2023-02-04T09:58:47.638Z,100949.06
2023-02-04T10:01:17.756Z,100936.59
2023-02-04T10:03:47.508Z,100947.03
2023-02-04T10:06:16.026Z,100947.91
2023-02-04T10:08:45.691Z,100952.09
2023-02-04T10:11:14.608Z,100970.69
2023-02-04T10:13:45.369Z,100970.56
2023-02-04T10:16:16.275Z,100967.06
2023-02-04T10:18:44.524Z,100964.44
2023-02-04T10:21:20.300Z,100967.09
2023-02-04T10:23:51.389Z,100975.00
2023-02-04T10:26:19.333Z,100961.00
2023-02-04T10:28:47.105Z,100970.66
2023-02-04T10:31:38.414Z,100964.50
2023-02-04T10:34:08.516Z,100964.50
2023-02-04T10:36:36.236Z,100968.88
2023-02-04T10:39:06.666Z,100960.03
2023-02-04T10:41:38.574Z,100953.91
2023-02-04T10:44:08.049Z,100960.06
2023-02-04T10:46:36.749Z,100969.78
2023-02-04T10:49:06.386Z,100958.41
2023-02-04T10:51:34.511Z,100962.78
2023-02-04T10:54:19.631Z,100965.59
2023-02-04T10:56:48.538Z,100958.53
2023-02-04T10:59:23.558Z,100956.72
2023-02-04T11:01:51.367Z,100961.22
2023-02-04T11:04:18.971Z,100951.59
2023-02-04T11:06:46.655Z,100956.00
2023-02-04T11:09:15.717Z,100957.72
2023-02-04T11:11:48.888Z,100956.88
2023-02-04T11:14:25.301Z,100950.75
2023-02-04T11:16:54.688Z,100952.44
2023-02-04T11:19:34.021Z,100948.00
2023-02-04T11:22:20.253Z,100956.72
2023-02-04T11:24:47.779Z,100949.53
2023-02-04T11:27:26.725Z,100953.69
2023-02-04T11:30:06.308Z,100957.75
2023-02-04T11:32:36.244Z,100951.53
2023-02-04T11:35:17.932Z,100947.94
2023-02-04T11:37:46.184Z,100960.44
2023-02-04T11:40:24.004Z,100953.44
2023-02-04T11:42:58.233Z,100947.63
2023-02-04T11:45:29.634Z,100956.28
2023-02-04T11:47:59.035Z,100937.09
2023-02-04T11:50:30.428Z,100952.69
2023-02-04T11:52:58.853Z,100950.91
2023-02-04T11:55:27.015Z,100925.63
2023-02-04T11:57:56.901Z,100937.41
2023-02-04T12:00:26.312Z,100945.06
2023-02-04T12:02:59.100Z,100918.16
2023-02-04T12:05:39.407Z,100952.53
2023-02-04T12:08:14.626Z,100922.78
2023-02-04T12:10:49.635Z,100936.75
2023-02-04T12:13:20.833Z,100961.09
2023-02-04T12:15:55.820Z,100947.28
2023-02-04T12:18:23.493Z,100964.59
2023-02-04T12:20:51.151Z,100962.34
2023-02-04T12:23:18.828Z,100935.56
2023-02-04T12:25:46.700Z,100944.28
2023-02-04T12:28:14.439Z,100935.66
2023-02-04T12:30:43.483Z,100934.06
2023-02-04T12:33:11.674Z,100971.59
2023-02-04T12:35:40.094Z,100944.75
2023-02-04T12:38:09.128Z,100970.81
2023-02-04T12:40:36.973Z,100971.78
2023-02-04T12:43:05.010Z,100950.97
2023-02-04T12:45:33.736Z,100946.50
2023-02-04T12:48:03.058Z,100979.72
2023-02-04T12:50:30.706Z,100972.66
2023-02-04T12:52:59.560Z,100972.63
2023-02-04T12:55:28.848Z,100970.00
2023-02-04T12:57:57.112Z,100969.97
2023-02-04T13:00:27.320Z,100981.31
2023-02-04T13:02:55.870Z,100955.09
2023-02-04T13:05:24.872Z,100955.81
2023-02-04T13:07:52.496Z,100948.78
2023-02-04T13:10:21.818Z,100961.81
2023-02-04T13:12:49.653Z,100974.00
2023-02-04T13:15:17.849Z,100966.13
2023-02-04T13:17:45.477Z,100960.72
2023-02-04T13:20:14.133Z,100976.22
2023-02-04T13:22:43.243Z,100969.25
2023-02-04T13:25:11.572Z,100949.09
2023-02-04T13:27:39.384Z,100964.97
2023-02-04T13:30:08.930Z,100959.91
2023-02-04T13:32:36.572Z,100963.38
2023-02-04T13:35:04.461Z,100964.16
2023-02-04T13:37:32.103Z,100970.25
2023-02-04T13:40:01.089Z,100941.44
2023-02-04T13:42:29.056Z,100960.63
2023-02-04T13:44:56.767Z,100960.97
2023-02-04T13:47:24.566Z,100953.16
2023-02-04T13:49:52.347Z,100926.88
2023-02-04T13:52:20.202Z,100957.41
2023-02-04T13:54:47.836Z,100934.03
2023-02-04T13:57:17.502Z,100940.16
2023-02-04T13:59:45.086Z,100960.91
2023-02-04T14:02:12.955Z,100970.69
2023-02-04T14:04:43.776Z,100939.13
2023-02-04T14:07:11.470Z,100934.78
2023-02-04T14:09:39.115Z,100950.53
2023-02-04T14:12:07.308Z,100971.47
2023-02-04T14:14:36.809Z,100970.69
2023-02-04T14:17:04.475Z,100945.34
2023-02-04T14:19:32.345Z,100944.38
2023-02-04T14:21:59.949Z,100968.00
2023-02-04T14:24:27.594Z,100977.63
2023-02-04T14:26:56.122Z,100948.78
2023-02-04T14:29:23.730Z,100951.47
2023-02-04T14:31:52.758Z,100976.72
2023-02-04T14:34:20.471Z,100981.97
2023-02-04T14:36:48.048Z,100957.50
2023-02-04T14:39:15.623Z,100953.09
2023-02-04T14:41:43.201Z,100982.00
2023-02-04T14:44:10.854Z,100988.19
2023-02-04T14:46:41.072Z,100968.09
2023-02-04T14:49:10.255Z,100957.63
2023-02-04T14:51:38.495Z,100978.56
2023-02-04T14:54:06.414Z,100948.09
2023-02-04T14:56:34.162Z,100954.13
2023-02-04T14:59:01.746Z,100982.13
2023-02-04T15:01:30.932Z,100954.31
2023-02-04T15:03:59.276Z,100955.13
2023-02-04T15:06:28.451Z,100984.81
2023-02-04T15:08:57.185Z,100960.44
2023-02-04T15:11:24.859Z,100961.25
2023-02-04T15:13:52.475Z,100976.13
2023-02-04T15:16:20.328Z,100949.97
2023-02-04T15:18:48.103Z,100972.72
2023-02-04T15:21:17.219Z,100960.53
2023-02-04T15:23:47.304Z,100985.00
2023-02-04T15:26:15.103Z,100961.44
2023-02-04T15:28:42.822Z,100999.03
2023-02-04T15:31:12.244Z,100975.41
2023-02-04T15:33:40.013Z,100996.41
2023-02-04T15:36:08.240Z,100981.59
2023-02-04T15:38:36.083Z,100997.34
2023-02-04T15:41:05.515Z,101002.63
2023-02-04T15:43:33.171Z,100993.00
2023-02-04T15:46:00.917Z,100980.78
2023-02-04T15:50:04.003Z,101012.28
2023-02-04T16:04:09.723Z,101013.19
2023-02-04T16:14:54.179Z,101009.69
2023-02-04T16:28:34.951Z,101007.94
2023-02-04T16:36:29.335Z,101033.31
2023-02-04T16:43:06.106Z,101018.44
2023-02-04T16:46:53.785Z,101042.03
2023-02-04T17:15:07.836Z,101033.25
2023-02-04T17:24:13.604Z,101072.59
2023-02-04T17:26:41.257Z,101047.22
2023-02-04T17:29:10.670Z,101078.72
2023-02-04T17:31:38.898Z,101050.72
2023-02-04T17:34:06.965Z,101051.59
2023-02-04T17:36:34.584Z,101053.34
2023-02-04T17:39:02.390Z,101050.69
2023-02-04T17:41:31.465Z,101057.69
2023-02-04T17:44:00.002Z,101059.44
2023-02-04T17:46:27.793Z,101054.19
2023-02-04T17:48:55.460Z,101077.81
2023-02-04T17:51:23.134Z,101081.28
2023-02-04T17:53:50.658Z,101055.00
2023-02-04T17:56:18.438Z,101063.78
2023-02-04T17:58:47.330Z,101068.16
2023-02-04T18:01:16.942Z,101063.75
2023-02-04T18:03:46.201Z,101093.41
2023-02-04T18:06:19.924Z,101086.44
2023-02-04T18:08:48.215Z,101089.88
2023-02-04T18:11:19.187Z,101082.88
2023-02-04T18:13:49.421Z,101085.56
2023-02-04T18:16:24.288Z,101061.16
2023-02-04T18:18:54.380Z,101054.84
2023-02-04T18:21:23.963Z,101095.09
2023-02-04T18:24:01.402Z,101099.47
2023-02-04T18:26:29.392Z,101066.16
2023-02-04T18:29:00.016Z,101099.50
2023-02-04T18:31:34.758Z,101071.41
2023-02-04T18:34:03.068Z,101067.03
2023-02-04T18:36:33.501Z,101088.09
2023-02-04T18:39:02.552Z,101064.41
2023-02-04T18:41:33.944Z,101102.03
2023-02-04T18:44:18.553Z,101099.47
2023-02-04T18:46:48.726Z,101078.41
2023-02-04T18:49:21.835Z,101099.41
2023-02-04T18:51:49.830Z,101079.25
2023-02-04T18:54:30.958Z,101108.06
2023-02-04T18:57:17.452Z,101094.97
2023-02-04T18:59:46.512Z,101094.94
2023-02-04T19:02:30.415Z,101102.81
2023-02-04T19:05:12.858Z,101105.41
2023-02-04T19:07:41.322Z,101103.69
2023-02-04T19:10:26.967Z,101093.22
2023-02-04T19:12:54.815Z,101066.81
2023-02-04T19:15:36.098Z,101105.31
2023-02-04T19:18:16.789Z,101063.13
2023-02-04T19:20:44.499Z,101075.50
2023-02-04T19:23:15.710Z,101110.63
2023-02-04T19:25:47.144Z,101085.25
2023-02-04T19:28:28.548Z,101103.53
2023-02-04T19:31:04.700Z,101099.22
2023-02-04T19:33:34.738Z,101079.81
2023-02-04T19:36:16.228Z,101063.06
2023-02-04T19:38:46.229Z,101080.69
2023-02-04T19:41:27.719Z,101076.34
2023-02-04T19:44:19.855Z,101094.78
2023-02-04T19:46:48.812Z,101096.41
2023-02-04T19:49:21.572Z,101078.84
2023-02-04T19:51:53.087Z,101087.56
2023-02-04T19:54:24.142Z,101115.53
2023-02-04T19:56:52.408Z,101083.13
2023-02-04T19:59:26.350Z,101108.50
2023-02-04T20:02:01.028Z,101076.06
2023-02-04T20:04:35.856Z,101068.22
2023-02-04T20:07:03.599Z,101112.78
2023-02-04T20:09:33.938Z,101087.28
2023-02-04T20:12:05.820Z,101110.06
2023-02-04T20:14:47.774Z,101091.59
2023-02-04T20:17:37.555Z,101116.97
2023-02-04T20:20:30.413Z,101094.13
2023-02-04T20:22:59.193Z,101096.66
2023-02-04T20:25:43.759Z,101136.25
2023-02-04T20:28:17.446Z,101116.88
2023-02-04T20:30:45.672Z,101134.47
2023-02-04T20:33:25.576Z,101122.91
2023-02-04T20:36:44.476Z,101110.53
2023-02-04T20:39:39.843Z,101120.97
2023-02-04T20:42:35.988Z,101150.66
2023-02-04T20:45:12.999Z,101120.94
2023-02-04T20:47:40.695Z,101148.09
2023-02-04T20:50:41.552Z,101125.34
2023-02-04T20:53:23.123Z,101148.19
2023-02-04T20:55:53.277Z,101133.25
2023-02-04T20:58:22.778Z,101142.84
2023-02-04T21:00:53.757Z,101143.59
2023-02-04T21:03:30.081Z,101120.66
2023-02-04T21:06:00.475Z,101145.19
2023-02-04T21:08:30.968Z,101149.53
2023-02-04T21:10:58.909Z,101120.47
2023-02-04T21:13:26.790Z,101126.59
2023-02-04T21:15:54.618Z,101118.75
2023-02-04T21:18:22.661Z,101131.66
2023-02-04T21:20:50.244Z,101123.75
2023-02-04T21:23:19.454Z,101142.97
2023-02-04T21:25:47.254Z,101147.41
2023-02-04T21:28:15.661Z,101145.63
2023-02-04T21:30:43.632Z,101129.16
2023-02-04T21:33:11.681Z,101145.66
2023-02-04T21:35:39.577Z,101148.25
2023-02-04T21:38:07.659Z,101148.25
2023-02-04T21:40:38.230Z,101144.72
2023-02-04T21:43:08.149Z,101149.91
2023-02-04T21:45:36.672Z,101117.47
2023-02-04T21:48:06.177Z,101152.56
2023-02-04T21:50:34.292Z,101152.53
2023-02-04T21:53:01.897Z,101125.38
2023-02-04T21:55:30.069Z,101151.78
2023-02-04T21:57:59.100Z,101150.91
2023-02-04T22:00:27.459Z,101135.97
2023-02-04T22:02:55.208Z,101144.78
2023-02-04T22:05:23.314Z,101143.88
2023-02-04T22:07:51.472Z,101143.69
2023-02-04T22:10:21.519Z,101144.34
2023-02-04T22:12:49.466Z,101150.47
2023-02-04T22:15:21.114Z,101159.97
2023-02-04T22:17:49.248Z,101133.63
2023-02-04T22:20:17.202Z,101138.94
2023-02-04T22:22:45.429Z,101146.59
2023-02-04T22:25:13.827Z,101143.31
2023-02-04T22:27:41.555Z,101111.75
2023-02-04T22:30:11.031Z,101102.97
2023-02-04T22:32:40.317Z,101137.09
2023-02-04T22:35:10.003Z,101111.66
2023-02-04T22:37:37.912Z,101131.84
2023-02-04T22:40:06.701Z,101109.00
2023-02-04T22:42:34.589Z,101134.53
2023-02-04T22:45:02.536Z,101106.47
2023-02-04T22:47:30.375Z,101138.63
2023-02-04T22:49:59.324Z,101127.56
2023-02-04T22:52:27.262Z,101147.25
2023-02-04T22:54:54.853Z,101107.78
2023-02-04T22:57:22.592Z,101113.13
2023-02-04T22:59:50.419Z,101129.59
2023-02-04T23:02:18.234Z,101124.47
2023-02-04T23:04:45.866Z,101114.56
2023-02-04T23:07:15.031Z,101141.72
2023-02-04T23:09:42.704Z,101149.56
2023-02-04T23:12:16.426Z,101131.22
2023-02-04T23:14:45.632Z,101140.84
2023-02-04T23:17:13.881Z,101142.44
2023-02-04T23:19:41.851Z,101151.09
2023-02-04T23:22:10.479Z,101153.00
2023-02-04T23:24:40.136Z,101151.19
2023-02-04T23:27:09.248Z,101115.22
2023-02-04T23:29:36.982Z,101155.22
2023-02-04T23:32:05.301Z,101118.28
2023-02-04T23:34:33.478Z,101126.50
2023-02-04T23:37:01.411Z,101143.06
2023-02-04T23:39:29.114Z,101136.00
2023-02-04T23:41:58.053Z,101113.88
2023-02-04T23:44:25.905Z,101142.22
2023-02-04T23:46:53.546Z,101138.63
2023-02-04T23:49:21.437Z,101131.72
2023-02-04T23:51:49.023Z,101133.41
2023-02-04T23:54:16.643Z,101113.09
2023-02-04T23:56:44.321Z,101136.81
2023-02-04T23:59:13.451Z,101129.94
